Time;durP1;ratioP1;P1;durP2;ratioP2;P2;SDS_P1;SDS_P2;PMS_P1;PMS_P2;Temp;Humidity;BMP_temperature;BMP_pressure;BME280_temperature;BME280_humidity;BME280_pressure;Samples;Min_cycle;Max_cycle;Signal;HPM_P1;HPM_P2
2023/11/05 00:02:17;;;;;;;26.13;5.50;;;13.90;99.80;;;;;;7404255;19;20365;-77
2023/11/05 00:04:48;;;;;;;20.95;3.90;;;14.00;99.70;;;;;;7384871;19;20010;-76
2023/11/05 00:07:17;;;;;;;17.38;5.55;;;13.80;99.70;;;;;;7383541;19;20014;-77
2023/11/05 00:09:46;;;;;;;16.90;5.05;;;13.90;99.70;;;;;;7381460;19;20003;-77
2023/11/05 00:12:14;;;;;;;24.42;2.92;;;14.00;99.80;;;;;;7382265;19;20272;-77
2023/11/05 00:14:43;;;;;;;27.27;3.58;;;14.00;99.80;;;;;;7382836;19;20022;-78
2023/11/05 00:17:12;;;;;;;21.10;4.22;;;14.00;99.90;;;;;;7406384;19;20006;-78
2023/11/05 00:19:41;;;;;;;25.38;2.78;;;14.00;99.90;;;;;;7383066;19;20007;-78
2023/11/05 00:22:13;;;;;;;23.58;3.58;;;14.00;99.90;;;;;;7383836;19;20009;-78
2023/11/05 00:24:42;;;;;;;20.88;2.45;;;13.70;99.90;;;;;;7385072;19;20006;-78
2023/11/05 00:27:10;;;;;;;14.25;2.72;;;13.40;99.90;;;;;;7387114;19;20010;-78
2023/11/05 00:29:39;;;;;;;24.10;3.70;;;13.50;99.90;;;;;;7386355;19;20023;-78
2023/11/05 00:32:11;;;;;;;20.17;2.90;;;13.70;99.90;;;;;;7408009;19;20377;-77
2023/11/05 00:34:39;;;;;;;15.13;2.97;;;13.60;99.90;;;;;;7383707;19;20009;-77
2023/11/05 00:37:09;;;;;;;20.58;2.58;;;13.40;99.90;;;;;;7385522;19;20010;-77
2023/11/05 00:39:42;;;;;;;8.75;1.88;;;13.30;99.90;;;;;;7381315;19;19999;-77
2023/11/05 00:42:11;;;;;;;8.38;2.13;;;13.40;99.90;;;;;;7381695;19;20006;-76
2023/11/05 00:44:40;;;;;;;9.07;1.85;;;13.40;99.90;;;;;;7381455;19;20036;-77
2023/11/05 00:47:09;;;;;;;12.40;2.50;;;13.60;99.90;;;;;;7404865;19;20015;-76
2023/11/05 00:49:37;;;;;;;17.20;2.25;;;13.50;99.90;;;;;;7380719;19;20023;-77
2023/11/05 00:52:06;;;;;;;22.60;2.30;;;13.20;99.90;;;;;;7381926;19;20019;-76
2023/11/05 00:54:35;;;;;;;20.65;2.53;;;13.20;99.90;;;;;;7380786;19;20018;-77
2023/11/05 00:57:06;;;;;;;15.35;2.92;;;13.40;99.90;;;;;;7380556;19;20411;-77
2023/11/05 00:59:35;;;;;;;17.63;2.97;;;13.50;99.90;;;;;;7390304;19;20023;-77
2023/11/05 01:02:04;;;;;;;22.05;2.47;;;13.70;99.90;;;;;;7413022;19;20019;-77
2023/11/05 01:04:32;;;;;;;21.20;2.97;;;13.80;99.90;;;;;;7390852;19;20019;-77
2023/11/05 01:07:01;;;;;;;9.82;1.90;;;13.80;99.90;;;;;;7391741;19;20007;-77
2023/11/05 01:09:30;;;;;;;12.55;2.60;;;13.90;99.90;;;;;;7390305;19;20007;-77
2023/11/05 01:11:58;;;;;;;14.57;2.30;;;13.90;99.90;;;;;;7382439;19;20016;-77
2023/11/05 01:14:30;;;;;;;17.73;2.83;;;13.90;99.90;;;;;;7380639;19;20014;-77
2023/11/05 01:16:58;;;;;;;30.92;9.93;;;13.90;99.90;;;;;;7401597;19;20030;-77
2023/11/05 01:19:27;;;;;;;17.17;2.97;;;13.70;99.90;;;;;;7378964;19;20010;-77
2023/11/05 01:21:56;;;;;;;17.23;2.03;;;13.70;99.90;;;;;;7380238;19;20003;-77
2023/11/05 01:24:25;;;;;;;15.20;1.90;;;13.40;99.90;;;;;;7379514;19;20007;-77
2023/11/05 01:26:54;;;;;;;15.70;1.98;;;12.90;99.90;;;;;;7380284;19;20013;-76
2023/11/05 01:29:22;;;;;;;15.20;2.00;;;12.80;99.90;;;;;;7380662;19;20014;-76
2023/11/05 01:31:53;;;;;;;14.25;2.05;;;13.10;99.90;;;;;;7400627;19;20350;-77
2023/11/05 01:34:22;;;;;;;14.80;2.40;;;13.10;99.90;;;;;;7379436;19;20024;-77
2023/11/05 01:36:51;;;;;;;20.80;2.97;;;13.10;99.90;;;;;;7380145;19;20006;-77
2023/11/05 01:39:21;;;;;;;17.73;2.40;;;12.90;99.90;;;;;;7382079;19;20010;-77
2023/11/05 01:41:50;;;;;;;13.75;2.40;;;13.10;99.90;;;;;;7377468;19;20386;-77
2023/11/05 01:44:19;;;;;;;9.50;2.00;;;13.30;99.90;;;;;;7405890;19;20010;-77
2023/11/05 01:46:48;;;;;;;15.60;2.25;;;13.10;99.90;;;;;;7387684;19;20003;-77
2023/11/05 01:49:20;;;;;;;16.85;2.45;;;13.00;99.90;;;;;;7385757;19;20023;-78
2023/11/05 01:51:49;;;;;;;17.58;2.40;;;13.00;99.90;;;;;;7388640;19;20110;-77
2023/11/05 01:54:18;;;;;;;11.27;2.25;;;13.10;99.90;;;;;;7388266;19;20007;-77
2023/11/05 01:56:47;;;;;;;10.38;1.60;;;13.00;99.90;;;;;;7386687;19;20006;-77
2023/11/05 01:59:17;;;;;;;15.95;2.58;;;12.90;99.90;;;;;;7405408;19;20011;-77
2023/11/05 02:01:47;;;;;;;10.80;1.85;;;12.80;99.90;;;;;;7383236;19;19999;-77
2023/11/05 02:04:18;;;;;;;8.88;1.42;;;12.90;99.90;;;;;;7385301;19;20072;-77
2023/11/05 02:06:48;;;;;;;7.68;1.92;;;13.00;99.90;;;;;;7386241;19;20007;-77
2023/11/05 02:09:17;;;;;;;10.75;1.42;;;13.10;99.90;;;;;;7390249;19;20010;-77
2023/11/05 02:11:46;;;;;;;9.27;1.52;;;13.00;99.90;;;;;;7384189;19;20026;-77
2023/11/05 02:14:15;;;;;;;7.30;1.50;;;13.30;99.90;;;;;;7407884;19;20010;-77
2023/11/05 02:16:42;;;;;;;12.10;2.03;;;12.90;99.90;;;;;;7384656;19;20012;-76
2023/11/05 02:19:11;;;;;;;8.88;1.50;;;13.10;99.90;;;;;;7384765;19;20109;-77
2023/11/05 02:21:46;;;;;;;12.98;1.60;;;13.10;99.90;;;;;;7385059;19;20019;-77
2023/11/05 02:24:17;;;;;;;9.27;1.73;;;13.30;99.90;;;;;;7384017;19;20073;-77
2023/11/05 02:26:57;;;;;;;8.45;1.40;;;13.40;99.90;;;;;;7383492;19;20023;-77
2023/11/05 02:29:25;;;;;;;10.45;1.85;;;13.40;99.70;;;;;;7385428;19;20011;-76
2023/11/05 02:31:54;;;;;;;5.95;1.17;;;13.50;99.70;;;;;;7406872;19;20010;-77
2023/11/05 02:34:23;;;;;;;7.80;1.45;;;13.50;99.80;;;;;;7385219;19;20014;-77
2023/11/05 02:36:51;;;;;;;13.40;1.80;;;13.60;99.50;;;;;;7385410;19;20267;-77
2023/11/05 02:39:23;;;;;;;13.98;1.90;;;13.70;99.40;;;;;;7387564;19;20369;-76
2023/11/05 02:41:52;;;;;;;12.40;1.75;;;13.40;99.90;;;;;;7384276;19;20605;-76
2023/11/05 02:44:20;;;;;;;8.10;1.65;;;13.40;99.90;;;;;;7406611;19;20006;-77
2023/11/05 02:46:49;;;;;;;12.55;2.03;;;13.50;99.90;;;;;;7409640;19;20405;-77
2023/11/05 02:49:18;;;;;;;12.38;1.70;;;13.60;99.90;;;;;;7385610;19;20003;-77
2023/11/05 02:51:47;;;;;;;8.57;1.77;;;13.60;99.90;;;;;;7386309;19;20011;-77
2023/11/05 02:54:15;;;;;;;4.30;1.05;;;13.70;99.90;;;;;;7387571;19;20007;-77
2023/11/05 02:56:47;;;;;;;10.38;1.67;;;13.60;99.80;;;;;;7385317;19;20002;-77
2023/11/05 02:59:18;;;;;;;9.90;1.40;;;13.40;99.90;;;;;;7410303;19;20011;-77
2023/11/05 03:01:47;;;;;;;18.40;2.15;;;13.30;99.90;;;;;;7382136;19;20007;-77
2023/11/05 03:04:18;;;;;;;20.30;2.00;;;13.20;99.90;;;;;;7387295;19;20050;-77
2023/11/05 03:06:50;;;;;;;7.13;1.47;;;13.00;99.90;;;;;;7384868;19;20054;-76
2023/11/05 03:09:24;;;;;;;9.00;1.70;;;12.90;99.90;;;;;;7382532;19;20248;-77
2023/11/05 03:11:56;;;;;;;13.68;2.00;;;13.10;99.90;;;;;;7384127;19;20010;-77
2023/11/05 03:14:25;;;;;;;15.52;1.75;;;13.30;99.90;;;;;;7384016;19;20042;-77
2023/11/05 03:16:54;;;;;;;13.48;1.98;;;13.10;99.90;;;;;;7424013;19;20006;-77
2023/11/05 03:19:23;;;;;;;10.45;1.77;;;13.20;99.90;;;;;;7402291;19;20344;-77
2023/11/05 03:21:51;;;;;;;7.70;1.65;;;13.20;99.90;;;;;;7400819;19;20019;-77
2023/11/05 03:24:20;;;;;;;5.20;1.30;;;13.30;99.90;;;;;;7398571;19;20012;-77
2023/11/05 03:26:49;;;;;;;7.63;1.60;;;13.40;99.90;;;;;;7392154;19;20248;-77
2023/11/05 03:29:20;;;;;;;9.55;1.48;;;13.30;99.90;;;;;;7408004;19;20042;-77
2023/11/05 03:31:51;;;;;;;11.40;1.77;;;13.40;99.90;;;;;;7383481;19;20017;-77
2023/11/05 03:34:20;;;;;;;9.57;1.52;;;13.50;99.90;;;;;;7383283;19;19998;-79
2023/11/05 03:36:49;;;;;;;8.57;1.50;;;13.50;99.90;;;;;;7383626;19;20070;-78
2023/11/05 03:39:18;;;;;;;9.65;1.60;;;13.60;99.90;;;;;;7384225;19;20020;-77
2023/11/05 03:41:47;;;;;;;13.18;1.67;;;13.60;99.90;;;;;;7384740;19;20007;-79
2023/11/05 03:44:16;;;;;;;10.02;1.75;;;13.40;99.80;;;;;;7407793;19;20059;-77
2023/11/05 03:46:47;;;;;;;10.35;1.50;;;13.20;99.90;;;;;;7385244;19;20003;-78
2023/11/05 03:49:16;;;;;;;10.77;1.45;;;13.50;99.90;;;;;;7384625;19;20017;-78
2023/11/05 03:51:44;;;;;;;11.35;1.48;;;13.50;99.90;;;;;;7386950;19;20275;-78
2023/11/05 03:54:13;;;;;;;12.10;1.75;;;13.50;99.90;;;;;;7386383;19;20010;-78
2023/11/05 03:56:42;;;;;;;12.63;1.90;;;13.50;99.90;;;;;;7384974;19;20339;-78
2023/11/05 03:59:11;;;;;;;6.90;1.50;;;13.50;99.90;;;;;;7407686;19;20009;-77
2023/11/05 04:01:39;;;;;;;8.73;1.25;;;13.60;99.80;;;;;;7387720;19;20006;-78
2023/11/05 04:04:12;;;;;;;4.82;1.30;;;13.50;99.70;;;;;;7387452;19;20010;-79
2023/11/05 04:06:40;;;;;;;12.73;1.80;;;13.20;99.80;;;;;;7385213;19;20002;-76
2023/11/05 04:09:12;;;;;;;6.22;1.42;;;13.40;99.90;;;;;;7382134;19;20015;-76
2023/11/05 04:11:41;;;;;;;6.10;1.35;;;13.50;99.70;;;;;;7380993;19;20422;-77
2023/11/05 04:14:09;;;;;;;11.98;1.60;;;13.50;99.70;;;;;;7405991;19;20227;-77
2023/11/05 04:16:38;;;;;;;11.02;1.25;;;13.60;99.60;;;;;;7383689;19;20015;-77
2023/11/05 04:19:10;;;;;;;12.60;1.80;;;13.30;99.60;;;;;;7383846;19;20003;-77
2023/11/05 04:21:41;;;;;;;10.30;1.60;;;13.40;99.70;;;;;;7384487;19;20030;-77
2023/11/05 04:24:11;;;;;;;16.05;1.35;;;13.40;99.70;;;;;;7383805;19;20014;-77
2023/11/05 04:26:39;;;;;;;9.10;1.27;;;13.50;99.50;;;;;;7381853;19;20026;-77
2023/11/05 04:29:08;;;;;;;8.32;1.30;;;13.40;99.20;;;;;;7403585;19;20020;-77
2023/11/05 04:31:37;;;;;;;5.97;1.25;;;13.40;99.60;;;;;;7381212;19;20003;-78
2023/11/05 04:34:05;;;;;;;11.20;1.13;;;13.40;99.40;;;;;;7381412;19;20083;-77
2023/11/05 04:36:42;;;;;;;8.70;0.98;;;13.50;99.30;;;;;;7383309;19;20002;-77
2023/11/05 04:39:11;;;;;;;5.00;1.17;;;13.50;99.40;;;;;;7383283;19;20010;-78
2023/11/05 04:41:40;;;;;;;8.32;1.45;;;13.10;99.30;;;;;;7383119;19;20070;-78
2023/11/05 04:44:09;;;;;;;6.47;1.10;;;13.20;99.50;;;;;;7405057;19;20007;-78
2023/11/05 04:46:41;;;;;;;7.82;1.40;;;13.40;99.30;;;;;;7380607;19;20123;-76
2023/11/05 04:49:10;;;;;;;7.15;1.20;;;13.40;99.50;;;;;;7381119;19;20018;-76
2023/11/05 04:51:39;;;;;;;8.07;1.20;;;13.40;99.30;;;;;;7379915;19;20007;-77
2023/11/05 04:54:10;;;;;;;5.10;1.23;;;13.30;99.30;;;;;;7381363;19;20011;-76
2023/11/05 04:56:39;;;;;;;8.15;1.30;;;13.40;99.30;;;;;;7382546;19;20010;-77
2023/11/05 04:59:08;;;;;;;5.30;0.80;;;13.30;99.40;;;;;;7402342;19;20035;-77
2023/11/05 05:01:37;;;;;;;4.95;1.23;;;13.40;99.20;;;;;;7379408;19;20020;-77
2023/11/05 05:04:06;;;;;;;5.65;1.00;;;13.30;99.20;;;;;;7380219;19;20007;-77
2023/11/05 05:06:35;;;;;;;7.38;1.27;;;13.40;99.20;;;;;;7380286;19;20019;-77
2023/11/05 05:09:04;;;;;;;8.98;1.13;;;13.50;99.30;;;;;;7380539;19;20239;-77
2023/11/05 05:11:35;;;;;;;8.50;1.35;;;13.40;99.20;;;;;;7380601;19;20075;-77
2023/11/05 05:14:04;;;;;;;8.98;1.33;;;13.30;99.60;;;;;;7405760;19;20024;-77
2023/11/05 05:16:33;;;;;;;8.85;0.85;;;13.20;99.90;;;;;;7381310;19;20026;-77
2023/11/05 05:19:02;;;;;;;6.65;1.00;;;13.10;99.80;;;;;;7384012;19;20070;-77
2023/11/05 05:21:30;;;;;;;14.18;1.20;;;13.30;99.60;;;;;;7386288;19;20401;-76
2023/11/05 05:23:59;;;;;;;7.35;1.10;;;13.30;99.50;;;;;;7389114;19;20028;-77
2023/11/05 05:26:28;;;;;;;8.57;1.20;;;13.30;99.40;;;;;;7389506;19;20021;-77
2023/11/05 05:28:59;;;;;;;5.90;1.30;;;13.20;99.70;;;;;;7409566;19;20030;-78
2023/11/05 05:31:28;;;;;;;6.65;1.00;;;13.30;99.70;;;;;;7400269;19;19999;-77
2023/11/05 05:33:56;;;;;;;5.75;1.15;;;13.40;99.60;;;;;;7397907;19;20357;-77
2023/11/05 05:36:25;;;;;;;4.88;0.98;;;13.40;99.60;;;;;;7395784;19;20007;-77
2023/11/05 05:38:54;;;;;;;6.80;1.55;;;13.50;99.70;;;;;;7396824;19;20034;-77
2023/11/05 05:41:24;;;;;;;5.88;1.10;;;13.40;99.40;;;;;;7394288;19;20014;-77
2023/11/05 05:43:53;;;;;;;7.70;1.52;;;13.30;99.50;;;;;;7409407;19;20022;-76
2023/11/05 05:46:24;;;;;;;8.15;1.05;;;13.30;99.30;;;;;;7387148;19;20010;-76
2023/11/05 05:48:53;;;;;;;7.28;0.95;;;13.40;99.20;;;;;;7387215;19;20010;-76
2023/11/05 05:51:21;;;;;;;4.65;1.10;;;13.50;99.10;;;;;;7387091;19;20006;-76
2023/11/05 05:53:50;;;;;;;3.40;0.80;;;13.20;99.30;;;;;;7390439;19;19999;-76
2023/11/05 05:56:19;;;;;;;4.38;0.82;;;13.30;99.40;;;;;;7408429;19;20014;-76
2023/11/05 05:58:49;;;;;;;11.32;1.30;;;13.40;99.10;;;;;;7386223;19;20397;-76
2023/11/05 06:01:18;;;;;;;7.88;1.45;;;13.50;99.00;;;;;;7385469;19;20010;-76
2023/11/05 06:03:49;;;;;;;15.82;1.10;;;13.40;98.90;;;;;;7386129;19;20030;-76
2023/11/05 06:06:18;;;;;;;6.95;1.00;;;13.40;99.00;;;;;;7386459;19;20011;-76
2023/11/05 06:08:47;;;;;;;5.25;1.25;;;13.20;99.00;;;;;;7386851;19;19998;-76
2023/11/05 06:11:16;;;;;;;3.67;1.05;;;13.00;99.40;;;;;;7407448;19;20023;-77
2023/11/05 06:13:45;;;;;;;2.90;0.70;;;13.10;99.30;;;;;;7388674;19;20288;-77
2023/11/05 06:16:13;;;;;;;8.50;1.08;;;13.20;99.40;;;;;;7385390;19;20006;-77
2023/11/05 06:18:42;;;;;;;8.98;1.10;;;13.10;99.50;;;;;;7386823;19;20007;-77
2023/11/05 06:21:13;;;;;;;3.15;1.00;;;13.10;99.50;;;;;;7385786;19;19999;-77
2023/11/05 06:23:42;;;;;;;10.88;1.65;;;13.20;99.50;;;;;;7387575;19;19995;-78
2023/11/05 06:26:11;;;;;;;8.77;0.85;;;13.30;99.40;;;;;;7409977;19;20299;-77
2023/11/05 06:28:39;;;;;;;7.70;1.25;;;13.50;99.30;;;;;;7388314;19;20284;-77
2023/11/05 06:31:08;;;;;;;4.68;1.00;;;13.50;99.20;;;;;;7386065;19;20019;-77
2023/11/05 06:33:37;;;;;;;3.72;1.00;;;13.40;99.00;;;;;;7387684;19;20018;-77
2023/11/05 06:36:06;;;;;;;7.95;1.13;;;13.10;99.20;;;;;;7387933;19;20365;-77
2023/11/05 06:38:40;;;;;;;3.47;0.57;;;13.00;99.50;;;;;;7387388;19;20287;-77
2023/11/05 06:41:09;;;;;;;1.92;0.80;;;13.10;99.50;;;;;;7411871;19;20112;-76
2023/11/05 06:43:38;;;;;;;5.72;1.10;;;13.10;99.40;;;;;;7384907;19;20003;-76
2023/11/05 06:46:07;;;;;;;6.30;0.90;;;13.10;99.40;;;;;;7388024;19;20003;-77
2023/11/05 06:48:36;;;;;;;4.13;1.10;;;13.10;99.40;;;;;;7386090;19;20016;-78
2023/11/05 06:51:07;;;;;;;7.55;0.98;;;13.20;99.30;;;;;;7385749;19;20232;-77
2023/11/05 06:53:38;;;;;;;7.97;1.05;;;13.00;99.50;;;;;;7384728;19;20358;-76
2023/11/05 06:56:07;;;;;;;4.90;1.20;;;13.10;99.50;;;;;;7405949;19;20283;-76
2023/11/05 06:58:36;;;;;;;4.55;1.02;;;13.20;99.20;;;;;;7387206;19;20010;-76
2023/11/05 07:01:06;;;;;;;5.13;1.08;;;13.30;99.20;;;;;;7384446;19;20028;-77
2023/11/05 07:03:35;;;;;;;7.60;1.27;;;13.20;99.20;;;;;;7384028;19;20007;-77
2023/11/05 07:06:03;;;;;;;3.22;0.73;;;13.20;99.10;;;;;;7384164;19;20241;-77
2023/11/05 07:08:32;;;;;;;4.95;1.20;;;13.30;99.20;;;;;;7382493;19;20011;-77
2023/11/05 07:11:05;;;;;;;6.70;0.93;;;13.40;99.20;;;;;;7405239;19;20223;-77
2023/11/05 07:13:34;;;;;;;3.22;0.88;;;13.40;99.20;;;;;;7384503;19;20265;-77
2023/11/05 07:16:03;;;;;;;3.47;0.88;;;13.50;99.40;;;;;;7384035;19;20041;-77
2023/11/05 07:18:32;;;;;;;3.78;0.95;;;13.50;99.50;;;;;;7388330;19;20374;-77
2023/11/05 07:21:00;;;;;;;8.43;1.60;;;13.40;99.80;;;;;;7384365;19;20011;-76
2023/11/05 07:23:29;;;;;;;4.22;0.88;;;13.40;99.90;;;;;;7381909;19;20003;-76
2023/11/05 07:25:58;;;;;;;8.65;1.63;;;13.50;99.90;;;;;;7405244;19;20015;-77
2023/11/05 07:28:29;;;;;;;3.50;1.00;;;13.60;99.90;;;;;;7382253;19;20007;-77
2023/11/05 07:30:58;;;;;;;11.48;1.40;;;13.30;99.90;;;;;;7383057;19;20007;-77
2023/11/05 07:33:27;;;;;;;9.35;1.80;;;13.30;99.90;;;;;;7382178;19;20009;-77
2023/11/05 07:35:56;;;;;;;6.85;1.20;;;13.40;99.90;;;;;;7382997;19;20007;-77
2023/11/05 07:38:26;;;;;;;7.68;1.50;;;13.50;99.80;;;;;;7383018;19;20406;-77
2023/11/05 07:40:54;;;;;;;3.13;0.90;;;13.70;99.60;;;;;;7407109;19;20239;-77
2023/11/05 07:43:23;;;;;;;6.75;1.05;;;13.40;99.30;;;;;;7381182;19;20007;-77
2023/11/05 07:45:54;;;;;;;9.70;1.33;;;13.50;99.40;;;;;;7395680;19;20003;-77
2023/11/05 07:48:23;;;;;;;4.40;1.10;;;13.60;99.30;;;;;;7396467;19;20034;-77
2023/11/05 07:50:52;;;;;;;6.95;1.27;;;13.40;99.20;;;;;;7400666;19;20067;-77
2023/11/05 07:53:23;;;;;;;2.75;0.95;;;13.40;99.80;;;;;;7418551;19;20022;-76
2023/11/05 07:55:51;;;;;;;7.82;1.40;;;13.50;99.30;;;;;;7416996;19;20011;-78
2023/11/05 07:58:20;;;;;;;3.88;1.25;;;13.60;99.20;;;;;;7385869;19;20019;-78
2023/11/05 08:00:50;;;;;;;11.05;1.17;;;13.60;99.10;;;;;;7390865;19;20002;-77
2023/11/05 08:03:22;;;;;;;3.65;1.15;;;13.70;98.90;;;;;;7385115;19;20006;-77
2023/11/05 08:05:51;;;;;;;4.88;0.90;;;13.60;98.80;;;;;;7383194;19;20002;-78
2023/11/05 08:08:20;;;;;;;6.50;1.02;;;13.60;98.80;;;;;;7404852;19;20038;-78
2023/11/05 08:10:48;;;;;;;6.15;0.95;;;13.50;99.10;;;;;;7382527;19;20022;-77
2023/11/05 08:13:17;;;;;;;3.72;1.05;;;13.70;98.90;;;;;;7382969;19;20374;-77
2023/11/05 08:15:47;;;;;;;7.57;0.90;;;13.50;99.20;;;;;;7383311;19;20007;-78
2023/11/05 08:18:16;;;;;;;6.97;1.35;;;13.50;99.10;;;;;;7382082;19;20318;-77
2023/11/05 08:20:50;;;;;;;7.13;1.20;;;13.30;99.20;;;;;;7381458;19;20031;-77
2023/11/05 08:23:19;;;;;;;10.52;1.27;;;13.30;99.70;;;;;;7402817;19;20020;-77
2023/11/05 08:25:47;;;;;;;6.00;1.42;;;13.40;99.70;;;;;;7382274;19;20005;-78
2023/11/05 08:28:17;;;;;;;4.63;1.13;;;13.40;99.70;;;;;;7382672;19;20285;-78
2023/11/05 08:30:46;;;;;;;3.90;1.30;;;13.20;99.70;;;;;;7382495;19;20329;-78
2023/11/05 08:33:15;;;;;;;5.75;0.98;;;13.20;99.40;;;;;;7382200;19;20010;-78
2023/11/05 08:35:47;;;;;;;3.90;1.23;;;13.40;99.50;;;;;;7384158;19;20007;-78
2023/11/05 08:38:16;;;;;;;6.50;1.02;;;13.40;99.00;;;;;;7403136;19;20007;-77
2023/11/05 08:40:45;;;;;;;7.07;1.23;;;13.20;99.40;;;;;;7380589;19;20002;-77
2023/11/05 08:43:14;;;;;;;6.93;1.58;;;13.20;99.50;;;;;;7382248;19;20019;-78
2023/11/05 08:45:42;;;;;;;9.77;1.65;;;13.30;99.60;;;;;;7385416;19;20003;-78
2023/11/05 08:48:09;;;;;;;6.68;1.15;;;13.40;99.80;;;;;;7383487;19;20006;-77
2023/11/05 08:50:39;;;;;;;4.28;1.33;;;13.10;99.80;;;;;;7385061;19;20003;-76
2023/11/05 08:53:10;;;;;;;12.57;1.27;;;12.80;99.90;;;;;;7406408;19;20362;-77
2023/11/05 08:55:39;;;;;;;9.13;1.48;;;12.70;99.90;;;;;;7380403;19;20009;-77
2023/11/05 08:58:08;;;;;;;5.72;1.48;;;12.80;99.90;;;;;;7382607;19;20390;-78
2023/11/05 09:00:37;;;;;;;7.22;1.50;;;12.90;99.90;;;;;;7381908;19;20010;-77
2023/11/05 09:03:06;;;;;;;15.18;1.85;;;13.00;99.90;;;;;;7380889;19;20009;-78
2023/11/05 09:05:36;;;;;;;7.95;1.63;;;13.00;99.90;;;;;;7383637;19;20039;-78
2023/11/05 09:08:08;;;;;;;6.88;1.83;;;12.80;99.90;;;;;;7406603;19;20070;-79
2023/11/05 09:10:40;;;;;;;6.63;1.52;;;12.90;99.90;;;;;;7387543;19;20010;-78
2023/11/05 09:13:08;;;;;;;9.73;1.88;;;13.00;99.90;;;;;;7383452;19;20007;-79
2023/11/05 09:15:39;;;;;;;4.57;1.25;;;12.90;99.90;;;;;;7383296;19;20006;-78
2023/11/05 09:18:07;;;;;;;4.82;1.15;;;12.70;99.90;;;;;;7382008;19;20003;-78
2023/11/05 09:20:36;;;;;;;8.95;1.95;;;12.60;99.90;;;;;;7382264;19;20248;-78
2023/11/05 09:23:05;;;;;;;9.45;1.80;;;12.50;99.90;;;;;;7403144;19;20369;-78
2023/11/05 09:25:34;;;;;;;8.60;1.98;;;12.50;99.90;;;;;;7382237;19;20019;-79
2023/11/05 09:28:05;;;;;;;6.35;2.13;;;12.90;99.90;;;;;;7382225;19;20009;-78
2023/11/05 09:30:34;;;;;;;5.55;1.48;;;12.90;99.90;;;;;;7383849;19;20016;-76
2023/11/05 09:33:03;;;;;;;5.38;1.42;;;12.60;99.90;;;;;;7381059;19;20007;-78
2023/11/05 09:35:32;;;;;;;7.38;1.80;;;12.70;99.90;;;;;;7381906;19;20011;-77
2023/11/05 09:38:03;;;;;;;5.70;1.13;;;12.80;99.90;;;;;;7403792;19;20006;-77
2023/11/05 09:40:33;;;;;;;13.45;1.90;;;12.90;99.90;;;;;;7379747;19;20013;-78
2023/11/05 09:43:05;;;;;;;6.18;1.60;;;12.90;99.90;;;;;;7379445;19;20002;-77
2023/11/05 09:45:36;;;;;;;5.50;1.52;;;12.80;99.90;;;;;;7381084;19;20024;-77
2023/11/05 09:48:06;;;;;;;4.63;1.50;;;12.90;99.90;;;;;;7380135;19;20252;-78
2023/11/05 09:50:36;;;;;;;4.80;1.60;;;12.90;99.90;;;;;;7379994;19;20259;-78
2023/11/05 09:53:07;;;;;;;4.55;1.52;;;13.00;99.90;;;;;;7401929;19;20003;-77
2023/11/05 09:55:39;;;;;;;6.15;1.90;;;13.00;99.90;;;;;;7380745;19;20059;-80
2023/11/05 09:58:11;;;;;;;7.50;1.48;;;13.00;99.90;;;;;;7388920;19;20235;-79
2023/11/05 10:00:40;;;;;;;7.93;2.08;;;13.10;99.90;;;;;;7401738;19;20027;-79
2023/11/05 10:03:36;;;;;;;9.60;1.73;;;13.00;99.90;;;;;;7398192;19;20014;-83
2023/11/05 10:17:23;;;;;;;8.93;1.70;;;13.10;99.40;;;;;;7414536;19;20005;-81
2023/11/05 10:35:08;;;;;;;3.72;1.60;;;13.40;99.00;;;;;;7386713;19;20245;-82
2023/11/05 10:37:47;;;;;;;5.53;1.15;;;13.50;98.20;;;;;;7385325;19;20006;-81
2023/11/05 10:40:30;;;;;;;3.78;1.38;;;13.50;98.40;;;;;;7418965;19;20007;-83
2023/11/05 10:42:59;;;;;;;11.80;1.95;;;13.30;97.80;;;;;;7396852;19;20007;-80
2023/11/05 10:45:29;;;;;;;12.27;1.77;;;13.20;97.90;;;;;;7413810;19;19994;-80
2023/11/05 10:47:57;;;;;;;5.85;1.70;;;13.40;97.90;;;;;;7388676;19;20003;-79
2023/11/05 10:50:30;;;;;;;6.10;1.33;;;13.40;97.60;;;;;;7384168;19;20060;-78
2023/11/05 10:53:06;;;;;;;12.85;1.50;;;13.40;97.20;;;;;;7387070;19;20035;-78
2023/11/05 10:55:36;;;;;;;6.45;1.50;;;13.50;97.30;;;;;;7385145;19;20015;-73
2023/11/05 10:58:06;;;;;;;7.30;1.20;;;13.50;97.30;;;;;;7379139;19;20007;-73
2023/11/05 11:00:48;;;;;;;12.82;1.40;;;13.70;97.10;;;;;;7407720;19;20016;-75
2023/11/05 11:03:17;;;;;;;;;;;13.80;96.70;;;;;;7382015;19;20035;-74
2023/11/05 11:06:01;;;;;;;2.78;1.17;;;13.70;96.70;;;;;;7383332;19;19915;-74
2023/11/05 11:08:35;;;;;;;7.72;1.55;;;13.80;95.90;;;;;;7381489;19;20007;-74
2023/11/05 11:11:25;;;;;;;4.85;1.48;;;13.60;95.60;;;;;;7384767;19;20067;-80
2023/11/05 11:13:57;;;;;;;5.65;1.30;;;13.70;95.70;;;;;;7386357;19;20011;-78
2023/11/05 11:16:30;;;;;;;3.05;0.82;;;14.00;95.60;;;;;;7384901;19;20033;-74
2023/11/05 11:19:01;;;;;;;4.50;1.08;;;13.90;94.90;;;;;;7407496;19;20017;-77
2023/11/05 11:21:29;;;;;;;7.95;1.65;;;13.90;95.30;;;;;;7408588;19;20255;-78
2023/11/05 11:24:06;;;;;;;7.60;1.60;;;13.90;95.50;;;;;;7381853;19;20011;-78
2023/11/05 11:26:39;;;;;;;5.72;1.10;;;14.00;95.40;;;;;;7388677;19;20031;-80
2023/11/05 11:29:10;;;;;;;8.05;1.15;;;14.10;94.90;;;;;;7388247;19;20014;-79
2023/11/05 11:31:39;;;;;;;5.20;1.38;;;14.10;94.90;;;;;;7388521;19;20010;-79
2023/11/05 11:34:08;;;;;;;6.82;1.30;;;14.10;94.00;;;;;;7384435;19;20014;-79
2023/11/05 11:36:37;;;;;;;5.35;1.30;;;13.90;94.00;;;;;;7408976;19;20357;-79
2023/11/05 11:39:10;;;;;;;6.40;1.33;;;14.00;94.30;;;;;;7386248;19;20011;-79
2023/11/05 11:41:39;;;;;;;5.70;0.90;;;14.20;93.60;;;;;;7384492;19;20030;-79
2023/11/05 11:44:08;;;;;;;13.77;1.35;;;14.00;93.90;;;;;;7385847;19;20002;-78
2023/11/05 11:46:37;;;;;;;4.30;1.10;;;14.00;94.20;;;;;;7388320;19;20007;-79
2023/11/05 11:49:13;;;;;;;4.43;0.80;;;14.30;94.50;;;;;;7383925;19;20022;-76
2023/11/05 11:51:42;;;;;;;9.85;1.30;;;14.50;94.20;;;;;;7407839;19;20286;-77
2023/11/05 11:54:13;;;;;;;8.98;1.05;;;14.60;94.30;;;;;;7382516;19;20023;-77
2023/11/05 11:56:43;;;;;;;5.45;1.50;;;14.70;93.90;;;;;;7382678;19;20027;-77
2023/11/05 11:59:12;;;;;;;7.97;1.58;;;14.70;93.90;;;;;;7382722;19;20345;-78
2023/11/05 12:01:44;;;;;;;7.43;1.55;;;14.60;94.00;;;;;;7387134;19;20031;-79
2023/11/05 12:04:14;;;;;;;7.90;1.55;;;14.60;93.80;;;;;;7381561;19;20017;-77
2023/11/05 12:06:44;;;;;;;8.70;1.20;;;14.60;93.90;;;;;;7408022;19;20023;-78
2023/11/05 12:09:24;;;;;;;5.05;1.40;;;14.80;94.00;;;;;;7383934;19;20003;-77
2023/11/05 12:11:56;;;;;;;7.65;1.27;;;14.80;94.00;;;;;;7386663;19;20044;-78
2023/11/05 12:14:27;;;;;;;17.58;1.73;;;14.90;94.00;;;;;;7386073;19;20242;-79
2023/11/05 12:16:57;;;;;;;10.57;1.45;;;15.10;94.00;;;;;;7388106;19;20090;-79
2023/11/05 12:19:29;;;;;;;7.35;2.10;;;15.20;94.00;;;;;;7388373;19;20207;-81
2023/11/05 12:21:58;;;;;;;9.80;1.35;;;15.30;94.00;;;;;;7410087;19;20247;-79
2023/11/05 12:24:32;;;;;;;4.57;1.48;;;15.40;93.40;;;;;;7384907;19;20039;-77
2023/11/05 12:27:58;;;;;;;;;;;;;;;;;;;;;
2023/11/05 12:30:28;;;;;;;13.30;1.55;;;15.30;93.50;;;;;;7361925;19;20433;-81
2023/11/05 12:32:58;;;;;;;15.90;1.85;;;15.30;93.00;;;;;;7409597;19;20027;-82
2023/11/05 12:35:27;;;;;;;7.35;1.83;;;15.30;92.90;;;;;;7387520;19;20030;-80
2023/11/05 12:45:55;;;;;;;;;;;;;;;;;;;;;
2023/11/05 12:48:28;;;;;;;9.65;2.10;;;15.00;92.40;;;;;;7384410;19;20731;-79
2023/11/05 12:51:08;;;;;;;8.95;1.88;;;15.00;92.60;;;;;;7385406;19;20116;-80
2023/11/05 12:53:52;;;;;;;15.68;2.33;;;14.90;92.40;;;;;;7384311;19;20014;-78
2023/11/05 12:56:21;;;;;;;17.23;2.08;;;14.90;92.50;;;;;;7383315;19;20006;-78
2023/11/05 12:58:50;;;;;;;12.52;2.20;;;15.10;92.70;;;;;;7382219;19;20003;-79
2023/11/05 13:01:22;;;;;;;16.50;2.20;;;15.40;92.70;;;;;;7381074;19;20020;-78
2023/11/05 13:03:53;;;;;;;13.23;1.63;;;15.50;92.30;;;;;;7403185;19;20406;-78
2023/11/05 13:06:23;;;;;;;9.20;2.22;;;15.60;91.70;;;;;;7384305;19;20011;-80
2023/11/05 13:08:52;;;;;;;7.32;2.10;;;15.70;92.00;;;;;;7383258;19;20011;-77
2023/11/05 13:11:21;;;;;;;10.45;2.13;;;15.70;91.40;;;;;;7381116;19;20010;-78
2023/11/05 13:13:49;;;;;;;12.60;2.30;;;15.70;91.50;;;;;;7381998;19;20066;-76
2023/11/05 13:16:18;;;;;;;12.70;2.13;;;15.70;91.30;;;;;;7380606;19;20364;-78
2023/11/05 13:18:50;;;;;;;10.32;1.95;;;15.70;91.50;;;;;;7410231;19;20090;-78
2023/11/05 13:21:19;;;;;;;10.18;2.25;;;15.80;91.60;;;;;;7382801;19;20039;-77
2023/11/05 13:23:47;;;;;;;16.75;2.20;;;15.90;91.70;;;;;;7384364;19;20003;-78
2023/11/05 13:26:17;;;;;;;17.52;2.30;;;15.90;91.50;;;;;;7380761;19;20014;-78
2023/11/05 13:28:46;;;;;;;12.18;2.55;;;15.90;91.20;;;;;;7380994;19;20533;-78
2023/11/05 13:31:14;;;;;;;9.63;2.08;;;15.90;91.40;;;;;;7381063;19;20006;-77
2023/11/05 13:33:43;;;;;;;10.60;1.90;;;15.80;91.40;;;;;;7401878;19;20007;-78
2023/11/05 13:36:14;;;;;;;15.95;2.30;;;15.70;91.70;;;;;;7382466;19;20014;-79